createdAt,value
2019-02-10T00:00:26.127Z,0
2019-02-10T00:01:26.133Z,0
2019-02-10T00:02:26.147Z,0
2019-02-10T00:03:26.162Z,0
2019-02-10T00:04:26.179Z,0
2019-02-10T00:05:26.252Z,0
2019-02-10T00:07:40.894Z,0
2019-02-10T00:08:26.252Z,0
2019-02-10T00:09:26.267Z,0
2019-02-10T00:10:40.690Z,0
2019-02-10T00:11:26.294Z,0
2019-02-10T00:12:40.722Z,0
2019-02-10T00:13:26.325Z,0
2019-02-10T00:14:26.335Z,0
2019-02-10T00:15:26.355Z,0
2019-02-10T00:16:26.372Z,0
2019-02-10T00:17:26.388Z,0
2019-02-10T00:18:41.068Z,0
2019-02-10T00:19:26.419Z,0
2019-02-10T00:20:26.486Z,0
2019-02-10T00:21:26.446Z,0
2019-02-10T00:23:26.478Z,0
2019-02-10T00:24:41.259Z,0
2019-02-10T00:25:26.513Z,0
2019-02-10T00:26:41.195Z,0
2019-02-10T00:27:26.546Z,0
2019-02-10T00:28:26.564Z,0
2019-02-10T00:29:26.586Z,0
2019-02-10T00:30:26.590Z,0
2019-02-10T00:31:26.607Z,0
2019-02-10T00:32:26.789Z,0
2019-02-10T00:34:26.661Z,0
2019-02-10T00:35:26.665Z,0
2019-02-10T00:36:32.816Z,0
2019-02-10T00:37:26.698Z,0
2019-02-10T00:38:41.380Z,0
2019-02-10T00:39:41.146Z,0
2019-02-10T00:40:26.745Z,0
2019-02-10T00:41:26.763Z,0
2019-02-10T00:42:41.439Z,0
2019-02-10T00:43:26.795Z,0
2019-02-10T00:44:26.912Z,0
2019-02-10T00:45:26.825Z,0
2019-02-10T00:46:26.859Z,0
2019-02-10T00:47:26.853Z,0
2019-02-10T00:48:26.868Z,0
2019-02-10T00:49:26.885Z,0
2019-02-10T00:50:41.565Z,0
2019-02-10T00:51:41.580Z,0
2019-02-10T00:52:41.594Z,0
2019-02-10T00:53:41.609Z,0
2019-02-10T00:54:27.066Z,0
2019-02-10T00:55:41.641Z,0
2019-02-10T00:56:27.000Z,0
2019-02-10T00:57:27.014Z,0
2019-02-10T00:58:41.697Z,0
2019-02-10T01:00:27.061Z,0
2019-02-10T01:01:28.206Z,0
2019-02-10T01:02:27.095Z,0
2019-02-10T01:03:27.106Z,0
2019-02-10T01:04:27.120Z,0
2019-02-10T01:05:41.806Z,0
2019-02-10T01:06:27.157Z,0
2019-02-10T01:07:41.828Z,0
2019-02-10T01:08:41.843Z,0
2019-02-10T01:09:27.202Z,0
2019-02-10T01:10:41.873Z,0
2019-02-10T01:11:27.228Z,0
2019-02-10T01:12:27.253Z,0
2019-02-10T01:13:41.934Z,0
2019-02-10T01:14:27.039Z,0
2019-02-10T01:15:27.292Z,0
2019-02-10T01:16:27.311Z,0
2019-02-10T01:18:27.343Z,0
2019-02-10T01:19:27.366Z,0
2019-02-10T01:20:27.369Z,0
2019-02-10T01:21:27.388Z,0
2019-02-10T01:22:27.404Z,0
2019-02-10T01:23:27.418Z,0
2019-02-10T01:24:27.446Z,0
2019-02-10T01:25:42.124Z,0
2019-02-10T01:26:27.458Z,0
2019-02-10T01:27:27.474Z,0
2019-02-10T01:28:27.495Z,0
2019-02-10T01:30:27.526Z,0
2019-02-10T01:32:27.553Z,0
2019-02-10T01:33:27.568Z,0
2019-02-10T01:34:27.606Z,0
2019-02-10T01:35:27.603Z,0
2019-02-10T01:36:27.615Z,0
2019-02-10T01:38:27.685Z,0
2019-02-10T01:39:27.723Z,0
2019-02-10T01:40:27.685Z,0
2019-02-10T01:41:27.694Z,0
2019-02-10T01:42:42.372Z,0
2019-02-10T01:43:27.725Z,0
2019-02-10T01:44:27.741Z,0
2019-02-10T01:45:42.424Z,0
2019-02-10T01:46:27.772Z,0
2019-02-10T01:47:27.791Z,0
2019-02-10T01:48:27.821Z,0
2019-02-10T01:49:27.828Z,0
2019-02-10T01:50:27.834Z,0
2019-02-10T01:51:28.861Z,0
2019-02-10T01:52:27.862Z,0
2019-02-10T01:53:27.880Z,0
2019-02-10T01:54:27.897Z,0
2019-02-10T01:55:27.910Z,0
2019-02-10T01:56:27.927Z,0
2019-02-10T01:58:27.955Z,0
2019-02-10T01:59:27.969Z,0
2019-02-10T02:00:27.988Z,0
2019-02-10T02:01:42.665Z,0
2019-02-10T02:02:28.018Z,0
2019-02-10T02:04:28.043Z,0
2019-02-10T02:05:28.060Z,0
2019-02-10T02:06:28.117Z,0
2019-02-10T02:07:28.092Z,0
2019-02-10T02:08:28.113Z,0
2019-02-10T02:09:28.121Z,0
2019-02-10T02:10:28.135Z,0
2019-02-10T02:11:28.154Z,0
2019-02-10T02:12:28.168Z,0
2019-02-10T02:13:42.849Z,0
2019-02-10T02:14:27.969Z,0
2019-02-10T02:15:28.255Z,0
2019-02-10T02:16:28.235Z,0
2019-02-10T02:17:42.913Z,0
2019-02-10T02:18:28.258Z,0
2019-02-10T02:19:28.291Z,0
2019-02-10T02:20:28.289Z,0
2019-02-10T02:21:28.324Z,0
2019-02-10T02:22:28.328Z,0
2019-02-10T02:23:28.344Z,0
2019-02-10T02:24:43.018Z,0
2019-02-10T02:25:28.363Z,0
2019-02-10T02:26:28.143Z,0
2019-02-10T02:27:28.396Z,0
2019-02-10T02:28:43.075Z,0
2019-02-10T02:29:28.428Z,0
2019-02-10T02:30:28.203Z,0
2019-02-10T02:32:28.475Z,0
2019-02-10T02:33:43.152Z,0
2019-02-10T02:34:28.502Z,0
2019-02-10T02:35:28.519Z,0
2019-02-10T02:36:28.531Z,0
2019-02-10T02:37:28.545Z,0
2019-02-10T02:38:28.571Z,0
2019-02-10T02:39:28.572Z,0
2019-02-10T02:40:28.590Z,0
2019-02-10T02:41:28.604Z,0
2019-02-10T02:42:28.625Z,0
2019-02-10T02:43:28.391Z,0
2019-02-10T02:44:28.663Z,0
2019-02-10T02:45:28.672Z,0
2019-02-10T02:46:28.691Z,0
2019-02-10T02:47:28.702Z,0
2019-02-10T02:48:43.397Z,0
2019-02-10T02:49:28.727Z,0
2019-02-10T02:50:28.746Z,0
2019-02-10T02:51:28.828Z,0
2019-02-10T02:52:28.526Z,0
2019-02-10T02:53:28.799Z,0
2019-02-10T02:54:43.471Z,0
2019-02-10T02:55:28.817Z,0
2019-02-10T02:56:28.835Z,0
2019-02-10T02:57:28.898Z,0
2019-02-10T03:00:43.554Z,0
2019-02-10T03:01:28.928Z,0
2019-02-10T03:02:28.940Z,0
2019-02-10T03:03:28.937Z,0
2019-02-10T03:04:28.956Z,0
2019-02-10T03:05:28.984Z,0
2019-02-10T03:06:28.980Z,0
2019-02-10T03:07:29.005Z,0
2019-02-10T03:08:29.117Z,0
2019-02-10T03:09:29.039Z,0
2019-02-10T03:10:43.708Z,0
2019-02-10T03:11:29.090Z,0
2019-02-10T03:12:29.106Z,0
2019-02-10T03:13:29.095Z,0
2019-02-10T03:15:29.227Z,0
2019-02-10T03:16:29.135Z,0
2019-02-10T03:18:28.967Z,0
2019-02-10T03:20:43.853Z,0
2019-02-10T03:21:28.970Z,0
2019-02-10T03:22:29.219Z,0
2019-02-10T03:23:29.340Z,0
2019-02-10T03:24:29.318Z,0
2019-02-10T03:25:29.283Z,0
2019-02-10T03:26:29.279Z,0
2019-02-10T03:27:29.334Z,0
2019-02-10T03:29:29.439Z,0
2019-02-10T03:30:29.375Z,0
2019-02-10T03:31:29.397Z,0
2019-02-10T03:33:29.423Z,0
2019-02-10T03:34:29.399Z,0
2019-02-10T03:35:29.414Z,0
2019-02-10T03:36:44.091Z,0
2019-02-10T03:37:34.423Z,0
2019-02-10T03:38:29.466Z,0
2019-02-10T03:40:29.486Z,0
2019-02-10T03:41:29.544Z,0
2019-02-10T03:42:29.541Z,0
2019-02-10T03:43:29.300Z,0
2019-02-10T03:44:29.566Z,0
2019-02-10T03:45:29.565Z,0
2019-02-10T03:46:44.247Z,0
2019-02-10T03:48:29.373Z,0
2019-02-10T03:49:44.294Z,0
2019-02-10T03:50:29.676Z,0
2019-02-10T03:51:29.782Z,0
2019-02-10T03:52:44.431Z,0
2019-02-10T03:53:29.711Z,0
2019-02-10T03:55:29.714Z,0
2019-02-10T03:56:29.751Z,0
2019-02-10T03:57:29.746Z,0
2019-02-10T03:58:29.755Z,0
2019-02-10T03:59:29.782Z,0
2019-02-10T04:00:29.810Z,0
2019-02-10T04:01:44.465Z,0
2019-02-10T04:02:29.814Z,0
2019-02-10T04:04:29.869Z,0
2019-02-10T04:05:29.859Z,0
2019-02-10T04:06:29.867Z,0
2019-02-10T04:07:38.225Z,0
2019-02-10T04:08:44.585Z,0
2019-02-10T04:09:30.051Z,0
2019-02-10T04:10:29.930Z,0
2019-02-10T04:11:29.941Z,0
2019-02-10T04:12:29.958Z,0
2019-02-10T04:13:29.975Z,0
2019-02-10T04:14:30.020Z,0
2019-02-10T04:15:44.673Z,0
2019-02-10T04:16:30.022Z,0
2019-02-10T04:17:30.038Z,0
2019-02-10T04:18:30.065Z,0
2019-02-10T04:19:30.059Z,0
2019-02-10T04:20:30.077Z,0
2019-02-10T04:21:30.113Z,0
2019-02-10T04:22:30.118Z,0
2019-02-10T04:23:44.780Z,0
2019-02-10T04:24:44.808Z,0
2019-02-10T04:25:30.153Z,0
2019-02-10T04:26:44.577Z,0
2019-02-10T04:27:30.181Z,0
2019-02-10T04:28:30.199Z,0
2019-02-10T04:29:30.211Z,0
2019-02-10T04:31:30.255Z,0
2019-02-10T04:32:30.259Z,0
2019-02-10T04:33:30.378Z,0
2019-02-10T04:35:30.294Z,0
2019-02-10T04:36:30.078Z,0
2019-02-10T04:37:30.327Z,0
2019-02-10T04:38:30.349Z,0
2019-02-10T04:39:30.359Z,0
2019-02-10T04:41:30.393Z,0
2019-02-10T04:42:45.066Z,0
2019-02-10T04:43:30.410Z,0
2019-02-10T04:44:30.426Z,0
2019-02-10T04:45:30.545Z,0
2019-02-10T04:46:30.465Z,0
2019-02-10T04:47:30.476Z,0
2019-02-10T04:48:30.485Z,0
2019-02-10T04:49:30.507Z,0
2019-02-10T04:50:45.201Z,0
2019-02-10T04:51:45.188Z,0
2019-02-10T04:52:45.203Z,0
2019-02-10T04:53:30.560Z,0
2019-02-10T04:54:30.577Z,0
2019-02-10T04:55:45.262Z,0
2019-02-10T04:57:30.626Z,0
2019-02-10T04:58:30.644Z,0
2019-02-10T04:59:30.662Z,0
2019-02-10T05:00:30.659Z,0
2019-02-10T05:01:30.676Z,0
2019-02-10T05:02:30.691Z,0
2019-02-10T05:03:30.715Z,0
2019-02-10T05:04:45.380Z,0
2019-02-10T05:05:45.417Z,0
2019-02-10T05:06:30.747Z,0
2019-02-10T05:09:30.554Z,0
2019-02-10T05:10:30.804Z,0
2019-02-10T05:11:45.483Z,0
2019-02-10T05:12:30.851Z,0
2019-02-10T05:13:30.848Z,0
2019-02-10T05:14:45.530Z,0
2019-02-10T05:15:45.544Z,0
2019-02-10T05:16:30.914Z,0
2019-02-10T05:17:30.907Z,0
2019-02-10T05:18:30.931Z,0
2019-02-10T05:19:31.035Z,0
2019-02-10T05:20:30.951Z,0
2019-02-10T05:22:30.979Z,0
2019-02-10T05:23:31.002Z,0
2019-02-10T05:24:31.024Z,0
2019-02-10T05:25:31.027Z,0
2019-02-10T05:26:31.040Z,0
2019-02-10T05:28:00.379Z,0
2019-02-10T05:28:45.735Z,0
2019-02-10T05:29:45.748Z,0
2019-02-10T05:30:31.123Z,0
2019-02-10T05:31:31.107Z,0
2019-02-10T05:32:31.125Z,0
2019-02-10T05:33:31.133Z,0
2019-02-10T05:34:31.158Z,0
2019-02-10T05:36:31.185Z,0
2019-02-10T05:37:31.201Z,0
2019-02-10T05:38:31.214Z,0
2019-02-10T05:39:30.974Z,0
2019-02-10T05:40:45.898Z,0
2019-02-10T05:41:31.253Z,0
2019-02-10T05:42:45.938Z,0
2019-02-10T05:43:45.941Z,0
2019-02-10T05:44:31.305Z,0
2019-02-10T05:45:31.313Z,0
2019-02-10T05:46:45.997Z,0
2019-02-10T05:47:46.017Z,0
2019-02-10T05:48:31.117Z,0
2019-02-10T05:49:31.371Z,0
2019-02-10T05:50:31.388Z,0
2019-02-10T05:52:31.410Z,0
2019-02-10T05:53:31.437Z,0
2019-02-10T05:54:31.442Z,0
2019-02-10T05:55:31.460Z,0
2019-02-10T05:56:31.509Z,0
2019-02-10T05:57:31.485Z,0
2019-02-10T05:58:46.159Z,4
2019-02-10T05:59:31.530Z,4
2019-02-10T06:00:31.529Z,0
2019-02-10T06:01:31.545Z,0
2019-02-10T06:02:31.591Z,0
2019-02-10T06:03:31.573Z,4
2019-02-10T06:04:31.633Z,0
2019-02-10T06:05:31.623Z,0
2019-02-10T06:06:31.612Z,4
2019-02-10T06:07:31.633Z,4
2019-02-10T06:08:31.644Z,4
2019-02-10T06:09:31.676Z,4
2019-02-10T06:11:46.348Z,8
2019-02-10T06:12:31.711Z,4
2019-02-10T06:14:31.749Z,8
2019-02-10T06:16:31.766Z,12
2019-02-10T06:17:31.815Z,12
2019-02-10T06:18:31.795Z,12
2019-02-10T06:19:31.801Z,16
2019-02-10T06:20:31.831Z,20
2019-02-10T06:21:31.848Z,20
2019-02-10T06:22:46.525Z,28
2019-02-10T06:23:31.858Z,28
2019-02-10T06:24:31.979Z,32
2019-02-10T06:25:31.918Z,36
2019-02-10T06:26:46.568Z,40
2019-02-10T06:27:31.924Z,48
2019-02-10T06:28:31.938Z,52
2019-02-10T06:29:31.949Z,56
2019-02-10T06:30:46.626Z,68
2019-02-10T06:31:31.976Z,76
2019-02-10T06:32:32.004Z,84
2019-02-10T06:33:32.011Z,96
2019-02-10T06:34:32.021Z,104
2019-02-10T06:35:32.036Z,116
2019-02-10T06:36:46.733Z,136
2019-02-10T06:37:32.175Z,148
2019-02-10T06:38:32.086Z,160
2019-02-10T06:39:32.146Z,172
2019-02-10T06:40:32.117Z,188
2019-02-10T06:41:32.125Z,200
2019-02-10T06:44:32.170Z,232
2019-02-10T06:46:46.857Z,260
2019-02-10T06:47:32.208Z,272
2019-02-10T06:48:32.223Z,288
2019-02-10T06:49:32.242Z,308
2019-02-10T06:50:32.256Z,328
2019-02-10T06:51:32.268Z,348
2019-02-10T06:53:32.307Z,384
2019-02-10T06:55:32.326Z,412
2019-02-10T06:56:32.360Z,420
2019-02-10T06:57:32.359Z,424
2019-02-10T06:58:32.388Z,432
2019-02-10T06:59:32.389Z,444
2019-02-10T07:00:46.818Z,464
2019-02-10T07:01:32.415Z,480
2019-02-10T07:02:47.096Z,512
2019-02-10T07:03:32.444Z,532
2019-02-10T07:04:32.471Z,560
2019-02-10T07:05:32.474Z,580
2019-02-10T07:06:32.490Z,604
2019-02-10T07:07:32.502Z,620
2019-02-10T07:08:37.806Z,644
2019-02-10T07:09:47.217Z,668
2019-02-10T07:10:32.547Z,680
2019-02-10T07:11:32.564Z,708
2019-02-10T07:12:32.579Z,732
2019-02-10T07:13:32.599Z,752
2019-02-10T07:14:32.637Z,776
2019-02-10T07:16:32.637Z,824
2019-02-10T07:17:32.656Z,852
2019-02-10T07:18:47.334Z,896
2019-02-10T07:19:47.358Z,932
2019-02-10T07:20:32.698Z,960
2019-02-10T07:21:33.580Z,992
2019-02-10T07:22:32.730Z,1028
2019-02-10T07:23:32.747Z,1068
2019-02-10T07:24:32.758Z,1100
2019-02-10T07:25:32.769Z,1132
2019-02-10T07:26:32.792Z,1148
2019-02-10T07:27:32.812Z,1168
2019-02-10T07:28:47.478Z,1184
2019-02-10T07:29:47.494Z,1196
2019-02-10T07:30:32.843Z,1200
2019-02-10T07:32:32.878Z,1200
2019-02-10T07:33:47.555Z,1200
2019-02-10T07:34:32.907Z,1200
2019-02-10T07:35:32.931Z,1196
2019-02-10T07:36:32.946Z,1188
2019-02-10T07:37:32.953Z,1172
2019-02-10T07:38:40.827Z,1148
2019-02-10T07:39:32.980Z,1128
2019-02-10T07:40:32.993Z,1116
2019-02-10T07:41:33.141Z,1112
2019-02-10T07:42:33.030Z,1116
2019-02-10T07:43:33.053Z,1128
2019-02-10T07:44:33.067Z,1124
2019-02-10T07:45:33.076Z,1112
2019-02-10T07:46:33.094Z,1088
2019-02-10T07:47:32.903Z,1056
2019-02-10T07:48:33.125Z,1028
2019-02-10T07:49:33.136Z,1008
2019-02-10T07:50:32.907Z,988
2019-02-10T07:51:33.164Z,952
2019-02-10T07:52:33.180Z,908
2019-02-10T07:53:33.197Z,852
2019-02-10T07:54:33.255Z,788
2019-02-10T07:55:33.227Z,732
2019-02-10T07:56:33.444Z,708
2019-02-10T07:57:33.254Z,716
2019-02-10T07:58:33.326Z,772
2019-02-10T07:59:47.950Z,848
2019-02-10T08:00:33.303Z,888
2019-02-10T08:01:33.317Z,948
2019-02-10T08:02:47.996Z,1004
2019-02-10T08:03:33.378Z,1044
2019-02-10T08:04:33.465Z,1108
2019-02-10T08:05:48.041Z,1184
2019-02-10T08:06:33.394Z,1236
2019-02-10T08:07:33.413Z,1300
2019-02-10T08:08:33.849Z,1364
2019-02-10T08:09:33.442Z,1412
2019-02-10T08:10:33.462Z,1444
2019-02-10T08:11:33.468Z,1480
2019-02-10T08:12:33.481Z,1532
2019-02-10T08:13:33.515Z,1560
2019-02-10T08:14:33.512Z,1568
2019-02-10T08:15:33.535Z,1548
2019-02-10T08:16:33.544Z,1536
2019-02-10T08:17:48.221Z,1564
2019-02-10T08:19:33.692Z,1640
2019-02-10T08:20:33.610Z,1660
2019-02-10T08:21:48.286Z,1668
2019-02-10T08:22:33.642Z,1672
2019-02-10T08:23:33.662Z,1672
2019-02-10T08:24:33.670Z,1640
2019-02-10T08:25:33.717Z,1568
2019-02-10T08:26:33.697Z,1516
2019-02-10T08:27:33.834Z,1468
2019-02-10T08:28:33.746Z,1448
2019-02-10T08:29:33.755Z,1384
2019-02-10T08:30:33.515Z,1320
2019-02-10T08:31:33.777Z,1348
2019-02-10T08:32:33.836Z,1512
2019-02-10T08:33:48.228Z,1668
2019-02-10T08:34:33.871Z,1808
2019-02-10T08:35:34.594Z,2056
2019-02-10T08:36:33.958Z,2108
2019-02-10T08:37:48.535Z,2140
2019-02-10T08:38:33.883Z,2140
2019-02-10T08:39:33.900Z,2148
2019-02-10T08:40:34.026Z,2112
2019-02-10T08:41:33.935Z,1992
2019-02-10T08:42:33.954Z,1836
2019-02-10T08:43:48.628Z,1668
2019-02-10T08:44:33.981Z,1592
2019-02-10T08:45:33.991Z,1516
2019-02-10T08:46:34.012Z,1440
2019-02-10T08:47:40.862Z,1456
2019-02-10T08:48:34.042Z,1516
2019-02-10T08:49:34.062Z,1520
2019-02-10T08:50:48.731Z,1516
2019-02-10T08:51:34.085Z,1520
2019-02-10T08:52:34.104Z,1580
2019-02-10T08:53:48.833Z,1688
2019-02-10T08:54:34.175Z,1732
2019-02-10T08:55:34.153Z,1844
2019-02-10T08:56:34.161Z,1956
2019-02-10T08:57:34.180Z,2048
2019-02-10T08:58:34.197Z,2064
2019-02-10T08:59:34.214Z,2000
2019-02-10T09:00:34.232Z,1932
2019-02-10T09:01:34.351Z,1860
2019-02-10T09:02:34.253Z,1800
2019-02-10T09:03:34.024Z,1708
2019-02-10T09:04:48.954Z,1664
2019-02-10T09:05:34.306Z,1576
2019-02-10T09:06:34.319Z,1492
2019-02-10T09:08:49.017Z,1656
2019-02-10T09:09:34.365Z,1640
2019-02-10T09:10:34.413Z,1504
2019-02-10T09:11:34.402Z,1400
2019-02-10T09:12:34.424Z,1332
2019-02-10T09:13:34.434Z,1288
2019-02-10T09:14:34.447Z,1196
2019-02-10T09:15:34.509Z,1080
2019-02-10T09:16:34.229Z,1056
2019-02-10T09:17:34.596Z,1048
2019-02-10T09:18:34.607Z,1048
2019-02-10T09:19:34.516Z,1100
2019-02-10T09:20:34.545Z,1136
2019-02-10T09:21:34.545Z,1088
2019-02-10T09:22:34.562Z,1068
2019-02-10T09:23:34.579Z,1100
2019-02-10T09:24:34.592Z,1108
2019-02-10T09:25:34.611Z,1088
2019-02-10T09:26:34.619Z,1112
2019-02-10T09:27:34.643Z,1116
2019-02-10T09:28:34.662Z,1144
2019-02-10T09:29:34.667Z,1148
2019-02-10T09:30:34.688Z,1184
2019-02-10T09:31:35.646Z,1184
2019-02-10T09:32:34.715Z,1164
2019-02-10T09:33:34.731Z,1184
2019-02-10T09:34:34.742Z,1244
2019-02-10T09:35:34.756Z,1276
2019-02-10T09:36:34.885Z,1308
2019-02-10T09:37:34.794Z,1308
2019-02-10T09:38:34.560Z,1272
2019-02-10T09:39:34.814Z,1248
2019-02-10T09:40:49.496Z,1272
2019-02-10T09:41:34.848Z,1272
2019-02-10T09:42:34.865Z,1256
2019-02-10T09:43:34.878Z,1244
2019-02-10T09:44:34.903Z,1256
2019-02-10T09:45:34.907Z,1220
2019-02-10T09:46:34.926Z,1192
2019-02-10T09:47:34.948Z,1256
2019-02-10T09:49:49.629Z,1288
2019-02-10T09:50:34.983Z,1308
2019-02-10T09:51:49.658Z,1312
2019-02-10T09:52:35.011Z,1320
2019-02-10T09:53:35.032Z,1392
2019-02-10T09:54:49.703Z,1416
2019-02-10T09:55:35.075Z,1412
2019-02-10T09:56:49.747Z,1412
2019-02-10T09:57:35.087Z,1408
2019-02-10T09:58:34.866Z,1376
2019-02-10T09:59:35.116Z,1464
2019-02-10T10:00:35.131Z,1484
2019-02-10T10:01:35.144Z,1452
2019-02-10T10:02:35.162Z,1420
2019-02-10T10:03:35.176Z,1412
2019-02-10T10:04:35.201Z,1484
2019-02-10T10:05:35.205Z,1584
2019-02-10T10:06:35.271Z,1640
2019-02-10T10:07:49.895Z,1768
2019-02-10T10:08:35.248Z,1804
2019-02-10T10:09:35.270Z,1840
2019-02-10T10:10:35.281Z,1836
2019-02-10T10:11:35.290Z,1872
2019-02-10T10:12:49.976Z,1884
2019-02-10T10:14:38.165Z,1920
2019-02-10T10:15:35.356Z,1952
2019-02-10T10:16:35.371Z,1932
2019-02-10T10:17:35.420Z,1872
2019-02-10T10:18:35.448Z,1872
2019-02-10T10:19:35.450Z,1892
2019-02-10T10:20:35.423Z,1892
2019-02-10T10:21:35.450Z,1848
2019-02-10T10:23:35.472Z,1752
2019-02-10T10:24:35.486Z,1760
2019-02-10T10:25:35.508Z,1748
2019-02-10T10:26:35.520Z,1728
2019-02-10T10:27:35.533Z,1692
2019-02-10T10:28:50.206Z,1636
2019-02-10T10:29:35.564Z,1600
2019-02-10T10:31:50.258Z,1632
2019-02-10T10:32:35.369Z,1620
2019-02-10T10:33:51.472Z,1672
2019-02-10T10:34:35.634Z,1704
2019-02-10T10:35:35.661Z,1724
2019-02-10T10:36:50.328Z,1708
2019-02-10T10:37:50.344Z,1692
2019-02-10T10:38:35.694Z,1692
2019-02-10T10:40:35.739Z,1628
2019-02-10T10:41:35.745Z,1532
2019-02-10T10:42:35.753Z,1468
2019-02-10T10:43:50.434Z,1456
2019-02-10T10:44:35.784Z,1460
2019-02-10T10:45:35.803Z,1468
2019-02-10T10:46:35.825Z,1488
2019-02-10T10:47:50.497Z,1508
2019-02-10T10:49:35.858Z,1496
2019-02-10T10:50:35.873Z,1520
2019-02-10T10:51:35.885Z,1568
2019-02-10T10:52:35.903Z,1588
2019-02-10T10:53:50.581Z,1564
2019-02-10T10:54:50.595Z,1544
2019-02-10T10:55:35.951Z,1516
2019-02-10T10:56:50.727Z,1456
2019-02-10T10:57:35.985Z,1416
2019-02-10T10:58:35.997Z,1392
2019-02-10T11:00:36.024Z,1360
2019-02-10T11:01:36.041Z,1364
2019-02-10T11:02:36.055Z,1328
2019-02-10T11:03:36.067Z,1288
2019-02-10T11:04:36.095Z,1284
2019-02-10T11:05:36.102Z,1268
2019-02-10T11:06:36.503Z,1260
2019-02-10T11:07:36.129Z,1236
2019-02-10T11:08:50.806Z,1224
2019-02-10T11:09:44.185Z,1216
2019-02-10T11:10:36.187Z,1184
2019-02-10T11:11:36.194Z,1160
2019-02-10T11:12:36.199Z,1164
2019-02-10T11:13:36.218Z,1128
2019-02-10T11:14:36.232Z,1076
2019-02-10T11:15:50.913Z,1024
2019-02-10T11:16:36.266Z,1000
2019-02-10T11:17:36.282Z,988
2019-02-10T11:18:36.294Z,964
2019-02-10T11:19:36.313Z,968
2019-02-10T11:20:36.324Z,1004
2019-02-10T11:21:36.342Z,1040
2019-02-10T11:22:36.356Z,1124
2019-02-10T11:23:36.369Z,1212
2019-02-10T11:24:36.384Z,1268
2019-02-10T11:25:36.408Z,1332
2019-02-10T11:26:36.411Z,1404
2019-02-10T11:27:36.426Z,1412
2019-02-10T11:28:36.449Z,1360
2019-02-10T11:29:51.123Z,1412
2019-02-10T11:31:51.210Z,1380
2019-02-10T11:32:36.505Z,1396
2019-02-10T11:33:36.521Z,1408
2019-02-10T11:34:36.534Z,1400
2019-02-10T11:35:36.650Z,1388
2019-02-10T11:36:36.565Z,1324
2019-02-10T11:37:38.270Z,1268
2019-02-10T11:38:36.593Z,1256
2019-02-10T11:39:51.271Z,1288
2019-02-10T11:40:51.287Z,1272
2019-02-10T11:41:36.640Z,1264
2019-02-10T11:42:36.654Z,1224
2019-02-10T11:43:36.684Z,1296
2019-02-10T11:46:36.778Z,1356
2019-02-10T11:47:51.392Z,1484
2019-02-10T11:50:36.777Z,1448
2019-02-10T11:51:36.794Z,1500
2019-02-10T11:52:36.812Z,1500
2019-02-10T11:53:36.832Z,1708
2019-02-10T11:54:36.839Z,1744
2019-02-10T11:55:36.892Z,1820
2019-02-10T11:56:36.870Z,1720
2019-02-10T11:57:51.541Z,1728
2019-02-10T11:58:36.892Z,1628
2019-02-10T11:59:36.671Z,1568
2019-02-10T12:00:36.924Z,1564
2019-02-10T12:01:36.941Z,1668
2019-02-10T12:02:44.946Z,1828
2019-02-10T12:03:51.633Z,1804
2019-02-10T12:04:37.087Z,1884
2019-02-10T12:05:36.999Z,2088
2019-02-10T12:06:37.016Z,2036
2019-02-10T12:07:37.032Z,1784
2019-02-10T12:08:42.929Z,1972
2019-02-10T12:09:51.954Z,1932
2019-02-10T12:10:37.095Z,1884
2019-02-10T12:11:37.103Z,1916
2019-02-10T12:12:37.110Z,1936
2019-02-10T12:13:38.606Z,1752
2019-02-10T12:14:37.141Z,1756
2019-02-10T12:16:51.831Z,1784
2019-02-10T12:17:37.184Z,1768
2019-02-10T12:18:51.868Z,1732
2019-02-10T12:19:38.402Z,1704
2019-02-10T12:20:37.231Z,1704
2019-02-10T12:22:37.271Z,1820
2019-02-10T12:23:37.277Z,1780
2019-02-10T12:24:37.301Z,1656
2019-02-10T12:25:37.312Z,1680
2019-02-10T12:26:37.326Z,1600
2019-02-10T12:27:52.003Z,1612
2019-02-10T12:28:37.359Z,1540
2019-02-10T12:30:52.050Z,1276
2019-02-10T12:31:37.426Z,1268
2019-02-10T12:32:37.421Z,1396
2019-02-10T12:33:37.535Z,1520
2019-02-10T12:34:37.445Z,1608
2019-02-10T12:35:37.464Z,1748
2019-02-10T12:36:37.480Z,2008
2019-02-10T12:37:54.345Z,1904
2019-02-10T12:38:37.522Z,1876
2019-02-10T12:39:37.549Z,1872
2019-02-10T12:40:37.541Z,1792
2019-02-10T12:41:37.578Z,1740
2019-02-10T12:42:37.572Z,1596
2019-02-10T12:43:37.589Z,1532
2019-02-10T12:44:37.605Z,1516
2019-02-10T12:45:37.621Z,1560
2019-02-10T12:46:37.637Z,1644
2019-02-10T12:47:37.661Z,1760
2019-02-10T12:48:37.665Z,1920
2019-02-10T12:50:52.358Z,2008
2019-02-10T12:51:37.716Z,1988
2019-02-10T12:52:37.728Z,1932
2019-02-10T12:53:37.751Z,1776
2019-02-10T12:54:37.757Z,1732
2019-02-10T12:55:37.775Z,1708
2019-02-10T12:56:37.839Z,1684
2019-02-10T12:57:37.803Z,1644
2019-02-10T12:58:37.920Z,1676
2019-02-10T12:59:52.507Z,1812
2019-02-10T13:00:38.000Z,1832
2019-02-10T13:01:37.870Z,1840
2019-02-10T13:02:37.891Z,1820
2019-02-10T13:03:37.902Z,1844
2019-02-10T13:04:37.924Z,1812
2019-02-10T13:05:37.930Z,1728
2019-02-10T13:06:52.610Z,1804
2019-02-10T13:08:38.084Z,1800
2019-02-10T13:09:38.001Z,1684
2019-02-10T13:10:38.012Z,1728
2019-02-10T13:11:38.027Z,1724
2019-02-10T13:12:38.042Z,1620
2019-02-10T13:13:38.057Z,1612
2019-02-10T13:14:52.739Z,1640
2019-02-10T13:15:52.758Z,1756
2019-02-10T13:16:38.109Z,1724
2019-02-10T13:17:38.126Z,1712
2019-02-10T13:18:38.138Z,1816
2019-02-10T13:19:38.149Z,1920
2019-02-10T13:20:38.166Z,1748
2019-02-10T13:21:38.188Z,1728
2019-02-10T13:22:52.863Z,1760
2019-02-10T13:23:38.213Z,1740
2019-02-10T13:24:38.232Z,1632
2019-02-10T13:25:38.248Z,1620
2019-02-10T13:26:38.266Z,1564
2019-02-10T13:27:38.286Z,1520
2019-02-10T13:28:38.294Z,1484
2019-02-10T13:29:38.309Z,1532
2019-02-10T13:30:53.359Z,1468
2019-02-10T13:31:38.343Z,1572
2019-02-10T13:32:38.367Z,1652
2019-02-10T13:33:53.035Z,1552
2019-02-10T13:34:38.427Z,1640
2019-02-10T13:35:53.066Z,1728
2019-02-10T13:36:38.534Z,1780
2019-02-10T13:37:38.436Z,1768
2019-02-10T13:38:53.120Z,1732
2019-02-10T13:39:38.471Z,1664
2019-02-10T13:40:39.964Z,1548
2019-02-10T13:41:38.504Z,1640
2019-02-10T13:42:38.516Z,1816
2019-02-10T13:43:40.859Z,1896
2019-02-10T13:44:38.548Z,1940
2019-02-10T13:45:38.564Z,1904
2019-02-10T13:46:38.588Z,1832
2019-02-10T13:47:53.260Z,1816
2019-02-10T13:48:53.284Z,1820
2019-02-10T13:49:38.637Z,1672
2019-02-10T13:50:38.650Z,1612
2019-02-10T13:51:38.661Z,1592
2019-02-10T13:52:38.684Z,1520
2019-02-10T13:53:53.354Z,1420
2019-02-10T13:54:38.728Z,1348
2019-02-10T13:55:38.723Z,1296
2019-02-10T13:56:39.113Z,1256
2019-02-10T13:57:38.758Z,1108
2019-02-10T13:58:38.774Z,1028
2019-02-10T13:59:38.790Z,988
2019-02-10T14:00:38.908Z,908
2019-02-10T14:01:38.828Z,944
2019-02-10T14:02:38.843Z,888
2019-02-10T14:04:38.896Z,836
2019-02-10T14:06:38.899Z,988
2019-02-10T14:07:38.926Z,952
2019-02-10T14:08:38.932Z,964
2019-02-10T14:09:38.953Z,1000
2019-02-10T14:10:38.969Z,1120
2019-02-10T14:11:38.981Z,1188
2019-02-10T14:13:39.021Z,1092
2019-02-10T14:14:39.028Z,1032
2019-02-10T14:15:38.899Z,996
2019-02-10T14:16:39.065Z,1060
2019-02-10T14:17:53.749Z,1056
2019-02-10T14:18:39.091Z,1024
2019-02-10T14:19:39.105Z,1008
2019-02-10T14:20:39.125Z,988
2019-02-10T14:21:39.140Z,1004
2019-02-10T14:22:53.820Z,1032
2019-02-10T14:23:38.923Z,1000
2019-02-10T14:24:39.231Z,952
2019-02-10T14:25:53.867Z,900
2019-02-10T14:26:39.216Z,852
2019-02-10T14:27:39.250Z,832
2019-02-10T14:28:39.250Z,804
2019-02-10T14:29:39.026Z,808
2019-02-10T14:30:39.283Z,792
2019-02-10T14:31:39.299Z,844
2019-02-10T14:32:39.314Z,868
2019-02-10T14:33:45.998Z,856
2019-02-10T14:34:54.012Z,848
2019-02-10T14:35:39.364Z,832
2019-02-10T14:36:39.379Z,832
2019-02-10T14:37:39.405Z,856
2019-02-10T14:38:43.570Z,844
2019-02-10T14:39:54.088Z,816
2019-02-10T14:40:41.148Z,780
2019-02-10T14:41:53.876Z,804
2019-02-10T14:42:39.479Z,792
2019-02-10T14:43:39.497Z,776
2019-02-10T14:44:39.514Z,760
2019-02-10T14:45:39.524Z,752
2019-02-10T14:46:39.539Z,700
2019-02-10T14:47:54.223Z,668
2019-02-10T14:48:39.673Z,672
2019-02-10T14:49:39.689Z,672
2019-02-10T14:51:39.375Z,676
2019-02-10T14:52:39.634Z,652
2019-02-10T14:53:39.702Z,616
2019-02-10T14:54:39.668Z,588
2019-02-10T14:55:39.694Z,572
2019-02-10T14:56:39.703Z,556
2019-02-10T14:57:54.381Z,540
2019-02-10T14:59:39.848Z,528
2019-02-10T15:00:39.761Z,500
2019-02-10T15:01:41.567Z,500
2019-02-10T15:02:39.799Z,500